Strona główna
METAR-TAF:

METAR-TAF

Lotnisko :

Colmar, Francja

Szerokość geograficzna: 48-06-37N, Długość geograficzna: 7-21-33E, wysokość: 191 m

Aktualna obserwacja pogody

Raport powstał 37 minut temu, godzina 18:30 UTC
Wiatr 3 kt od północno-północny wschód
Temperatura 26°C
Wilgotność 42%
Ciśnienie 1012 hPa
Widzialność 10 km lub więcej
Brak chmur poniżej 1500 m i brak chmur cumulonimbus

METAR: LFGA 171830Z AUTO 03003KT CAVOK 26/12 Q1012

czas: 21:07 (19:07 UTC)


TAF: brakujący

Obserwacja i prognoza pogody dla ponad 4000 lotnisk (raport METAR i TAF).

Dostępne stacje oznaczono żółtymi i czerwonymi punktami na mapie.

Najedź kursorem aby zobaczyć nazwę stacji.

Kliknij aby zobaczyć obserwacje i prognozy pogody.

Aby zmienić mapę: kliknij na zielony przycisk z czarnym krzyżykiem, aby powiększyć; na zielony przycisk z myślnikiem, aby pomniejszyć; na zielone strzałki, aby przejść do map sąsiednich.


METAR-TAF: